sensor_id;sensor_type;location;lat;lon;timestamp;temperature;humidity
21473;DHT22;10898;48.072;11.682;2023-07-08T00:01:49;17.50;91.00
21473;DHT22;10898;48.072;11.682;2023-07-08T00:03:51;17.50;91.00
21473;DHT22;10898;48.072;11.682;2023-07-08T00:05:53;17.50;91.30
21473;DHT22;10898;48.072;11.682;2023-07-08T00:07:56;17.50;91.60
21473;DHT22;10898;48.072;11.682;2023-07-08T00:09:58;17.50;91.70
21473;DHT22;10898;48.072;11.682;2023-07-08T00:12:00;17.40;92.00
21473;DHT22;10898;48.072;11.682;2023-07-08T00:14:01;17.40;92.20
21473;DHT22;10898;48.072;11.682;2023-07-08T00:16:03;17.40;92.40
21473;DHT22;10898;48.072;11.682;2023-07-08T00:18:09;17.40;92.70
21473;DHT22;10898;48.072;11.682;2023-07-08T00:22:32;17.40;93.00
21473;DHT22;10898;48.072;11.682;2023-07-08T00:24:36;17.40;93.30
21473;DHT22;10898;48.072;11.682;2023-07-08T00:26:37;17.30;93.50
21473;DHT22;10898;48.072;11.682;2023-07-08T00:28:39;17.30;93.60
21473;DHT22;10898;48.072;11.682;2023-07-08T00:30:41;17.30;93.90
21473;DHT22;10898;48.072;11.682;2023-07-08T00:32:43;17.30;94.20
21473;DHT22;10898;48.072;11.682;2023-07-08T00:34:44;17.30;94.50
21473;DHT22;10898;48.072;11.682;2023-07-08T00:36:46;17.30;94.80
21473;DHT22;10898;48.072;11.682;2023-07-08T00:38:48;17.30;94.60
21473;DHT22;10898;48.072;11.682;2023-07-08T00:40:58;17.30;95.30
21473;DHT22;10898;48.072;11.682;2023-07-08T00:43:01;17.30;95.30
21473;DHT22;10898;48.072;11.682;2023-07-08T00:45:10;17.30;95.90
21473;DHT22;10898;48.072;11.682;2023-07-08T00:47:16;17.30;96.20
21473;DHT22;10898;48.072;11.682;2023-07-08T00:49:23;17.20;96.90
21473;DHT22;10898;48.072;11.682;2023-07-08T00:51:26;17.30;96.80
21473;DHT22;10898;48.072;11.682;2023-07-08T00:53:32;17.20;97.10
21473;DHT22;10898;48.072;11.682;2023-07-08T00:55:34;17.20;97.70
21473;DHT22;10898;48.072;11.682;2023-07-08T00:57:37;17.20;97.70
21473;DHT22;10898;48.072;11.682;2023-07-08T00:59:44;17.30;97.50
21473;DHT22;10898;48.072;11.682;2023-07-08T01:01:47;17.20;97.60
21473;DHT22;10898;48.072;11.682;2023-07-08T01:03:51;17.30;97.70
21473;DHT22;10898;48.072;11.682;2023-07-08T01:05:55;17.30;98.50
21473;DHT22;10898;48.072;11.682;2023-07-08T01:08:02;17.30;98.90
21473;DHT22;10898;48.072;11.682;2023-07-08T01:10:06;17.30;98.90
21473;DHT22;10898;48.072;11.682;2023-07-08T01:12:17;17.30;99.00
21473;DHT22;10898;48.072;11.682;2023-07-08T01:14:20;17.30;99.60
21473;DHT22;10898;48.072;11.682;2023-07-08T01:16:23;17.30;99.50
21473;DHT22;10898;48.072;11.682;2023-07-08T01:18:25;17.30;99.20
21473;DHT22;10898;48.072;11.682;2023-07-08T01:20:27;17.30;99.80
21473;DHT22;10898;48.072;11.682;2023-07-08T01:22:29;17.30;99.40
21473;DHT22;10898;48.072;11.682;2023-07-08T01:24:34;17.30;99.60
21473;DHT22;10898;48.072;11.682;2023-07-08T01:26:40;17.30;99.50
21473;DHT22;10898;48.072;11.682;2023-07-08T01:28:43;17.30;99.60
21473;DHT22;10898;48.072;11.682;2023-07-08T01:30:45;17.30;99.40
21473;DHT22;10898;48.072;11.682;2023-07-08T01:32:51;17.30;99.40
21473;DHT22;10898;48.072;11.682;2023-07-08T01:34:55;17.30;99.50
21473;DHT22;10898;48.072;11.682;2023-07-08T01:37:04;17.30;99.20
21473;DHT22;10898;48.072;11.682;2023-07-08T01:39:08;17.30;99.50
21473;DHT22;10898;48.072;11.682;2023-07-08T01:41:15;17.30;99.60
21473;DHT22;10898;48.072;11.682;2023-07-08T01:43:17;17.30;99.50
21473;DHT22;10898;48.072;11.682;2023-07-08T01:45:20;17.20;99.50
21473;DHT22;10898;48.072;11.682;2023-07-08T01:47:22;17.20;99.90
21473;DHT22;10898;48.072;11.682;2023-07-08T01:49:24;17.20;99.90
21473;DHT22;10898;48.072;11.682;2023-07-08T01:51:26;17.20;99.90
21473;DHT22;10898;48.072;11.682;2023-07-08T01:53:38;17.20;99.90
21473;DHT22;10898;48.072;11.682;2023-07-08T01:55:41;17.20;99.90
21473;DHT22;10898;48.072;11.682;2023-07-08T01:57:43;17.20;99.90
21473;DHT22;10898;48.072;11.682;2023-07-08T01:59:44;17.10;99.90
21473;DHT22;10898;48.072;11.682;2023-07-08T02:01:46;17.10;99.90
21473;DHT22;10898;48.072;11.682;2023-07-08T02:03:49;17.10;99.90
21473;DHT22;10898;48.072;11.682;2023-07-08T02:05:51;17.10;99.90
21473;DHT22;10898;48.072;11.682;2023-07-08T02:07:52;17.10;99.90
21473;DHT22;10898;48.072;11.682;2023-07-08T02:09:54;17.10;99.90
21473;DHT22;10898;48.072;11.682;2023-07-08T02:11:56;17.10;99.90
21473;DHT22;10898;48.072;11.682;2023-07-08T02:13:58;16.90;99.90
21473;DHT22;10898;48.072;11.682;2023-07-08T02:16:01;17.00;99.90
21473;DHT22;10898;48.072;11.682;2023-07-08T02:18:03;17.00;99.90
21473;DHT22;10898;48.072;11.682;2023-07-08T02:20:05;17.00;99.90
21473;DHT22;10898;48.072;11.682;2023-07-08T02:22:07;17.00;99.90
21473;DHT22;10898;48.072;11.682;2023-07-08T02:24:08;17.00;99.90
21473;DHT22;10898;48.072;11.682;2023-07-08T02:26:10;16.90;99.90
21473;DHT22;10898;48.072;11.682;2023-07-08T02:28:12;16.90;99.90
21473;DHT22;10898;48.072;11.682;2023-07-08T02:30:13;16.90;99.90
21473;DHT22;10898;48.072;11.682;2023-07-08T02:32:15;16.90;99.90
21473;DHT22;10898;48.072;11.682;2023-07-08T02:34:17;16.90;99.90
21473;DHT22;10898;48.072;11.682;2023-07-08T02:36:19;16.90;99.90
21473;DHT22;10898;48.072;11.682;2023-07-08T02:38:21;16.90;99.90
21473;DHT22;10898;48.072;11.682;2023-07-08T02:40:23;16.80;99.90
21473;DHT22;10898;48.072;11.682;2023-07-08T02:42:25;16.80;99.90
21473;DHT22;10898;48.072;11.682;2023-07-08T02:44:26;16.80;99.90
21473;DHT22;10898;48.072;11.682;2023-07-08T02:46:28;16.80;99.90
21473;DHT22;10898;48.072;11.682;2023-07-08T02:48:30;16.80;99.90
21473;DHT22;10898;48.072;11.682;2023-07-08T02:50:31;16.70;99.90
21473;DHT22;10898;48.072;11.682;2023-07-08T02:52:33;16.70;99.90
21473;DHT22;10898;48.072;11.682;2023-07-08T02:54:35;16.70;99.90
21473;DHT22;10898;48.072;11.682;2023-07-08T02:56:36;16.70;99.90
21473;DHT22;10898;48.072;11.682;2023-07-08T02:58:38;16.70;99.90
21473;DHT22;10898;48.072;11.682;2023-07-08T03:00:40;16.60;99.90
21473;DHT22;10898;48.072;11.682;2023-07-08T03:02:41;16.60;99.90
21473;DHT22;10898;48.072;11.682;2023-07-08T03:04:43;16.60;99.90
21473;DHT22;10898;48.072;11.682;2023-07-08T03:06:45;16.60;99.90
21473;DHT22;10898;48.072;11.682;2023-07-08T03:08:46;16.60;99.90
21473;DHT22;10898;48.072;11.682;2023-07-08T03:10:53;16.60;99.90
21473;DHT22;10898;48.072;11.682;2023-07-08T03:12:55;16.60;99.90
21473;DHT22;10898;48.072;11.682;2023-07-08T03:14:57;16.60;99.90
21473;DHT22;10898;48.072;11.682;2023-07-08T03:16:58;16.60;99.90
21473;DHT22;10898;48.072;11.682;2023-07-08T03:19:00;16.60;99.90
21473;DHT22;10898;48.072;11.682;2023-07-08T03:21:02;16.60;99.90
21473;DHT22;10898;48.072;11.682;2023-07-08T03:23:04;16.60;99.90
21473;DHT22;10898;48.072;11.682;2023-07-08T03:25:06;16.60;99.90
21473;DHT22;10898;48.072;11.682;2023-07-08T03:27:08;16.60;99.90
21473;DHT22;10898;48.072;11.682;2023-07-08T03:29:17;16.60;99.90
21473;DHT22;10898;48.072;11.682;2023-07-08T03:31:18;16.60;99.90
21473;DHT22;10898;48.072;11.682;2023-07-08T03:33:21;16.50;99.90
21473;DHT22;10898;48.072;11.682;2023-07-08T03:35:23;16.50;99.90
21473;DHT22;10898;48.072;11.682;2023-07-08T03:37:24;16.50;99.90
21473;DHT22;10898;48.072;11.682;2023-07-08T03:39:26;16.50;99.90
21473;DHT22;10898;48.072;11.682;2023-07-08T03:41:28;16.50;99.90
21473;DHT22;10898;48.072;11.682;2023-07-08T03:43:29;16.50;99.90
21473;DHT22;10898;48.072;11.682;2023-07-08T03:45:31;16.50;99.90
21473;DHT22;10898;48.072;11.682;2023-07-08T03:47:33;16.50;99.90
21473;DHT22;10898;48.072;11.682;2023-07-08T03:49:36;16.50;99.90
21473;DHT22;10898;48.072;11.682;2023-07-08T03:51:38;16.50;99.90
21473;DHT22;10898;48.072;11.682;2023-07-08T03:53:40;16.50;99.90
21473;DHT22;10898;48.072;11.682;2023-07-08T03:55:42;16.50;99.90
21473;DHT22;10898;48.072;11.682;2023-07-08T03:57:44;16.50;99.90
21473;DHT22;10898;48.072;11.682;2023-07-08T03:59:46;16.60;99.90
21473;DHT22;10898;48.072;11.682;2023-07-08T04:01:47;16.60;99.90
21473;DHT22;10898;48.072;11.682;2023-07-08T04:03:53;16.50;99.90
21473;DHT22;10898;48.072;11.682;2023-07-08T04:05:55;16.50;99.90
21473;DHT22;10898;48.072;11.682;2023-07-08T04:07:57;16.60;99.90
21473;DHT22;10898;48.072;11.682;2023-07-08T04:09:59;16.60;99.90
21473;DHT22;10898;48.072;11.682;2023-07-08T04:12:00;16.50;99.90
21473;DHT22;10898;48.072;11.682;2023-07-08T04:14:02;16.60;99.90
21473;DHT22;10898;48.072;11.682;2023-07-08T04:16:04;16.60;99.90
21473;DHT22;10898;48.072;11.682;2023-07-08T04:18:06;16.60;99.90
21473;DHT22;10898;48.072;11.682;2023-07-08T04:20:08;16.70;99.90
21473;DHT22;10898;48.072;11.682;2023-07-08T04:22:12;16.70;99.90
21473;DHT22;10898;48.072;11.682;2023-07-08T04:24:14;16.70;99.90
21473;DHT22;10898;48.072;11.682;2023-07-08T04:26:16;16.80;99.90
21473;DHT22;10898;48.072;11.682;2023-07-08T04:28:20;16.80;99.90
21473;DHT22;10898;48.072;11.682;2023-07-08T04:30:24;16.80;99.90
21473;DHT22;10898;48.072;11.682;2023-07-08T04:32:26;16.90;99.90
21473;DHT22;10898;48.072;11.682;2023-07-08T04:34:28;16.90;99.90
21473;DHT22;10898;48.072;11.682;2023-07-08T04:36:30;16.90;99.90
21473;DHT22;10898;48.072;11.682;2023-07-08T04:38:31;17.00;99.90
21473;DHT22;10898;48.072;11.682;2023-07-08T04:40:33;17.00;99.90
21473;DHT22;10898;48.072;11.682;2023-07-08T04:42:35;17.10;99.90
21473;DHT22;10898;48.072;11.682;2023-07-08T04:44:39;17.10;99.90
21473;DHT22;10898;48.072;11.682;2023-07-08T04:46:45;17.10;99.90
21473;DHT22;10898;48.072;11.682;2023-07-08T04:48:48;17.10;99.90
21473;DHT22;10898;48.072;11.682;2023-07-08T04:50:50;17.20;99.90
21473;DHT22;10898;48.072;11.682;2023-07-08T04:52:52;17.20;99.90
21473;DHT22;10898;48.072;11.682;2023-07-08T04:54:54;17.20;99.90
21473;DHT22;10898;48.072;11.682;2023-07-08T04:56:55;17.30;99.90
21473;DHT22;10898;48.072;11.682;2023-07-08T04:58:57;17.30;99.90
21473;DHT22;10898;48.072;11.682;2023-07-08T05:00:59;17.40;99.90
21473;DHT22;10898;48.072;11.682;2023-07-08T05:03:01;17.40;99.90
21473;DHT22;10898;48.072;11.682;2023-07-08T05:05:03;17.40;99.90
21473;DHT22;10898;48.072;11.682;2023-07-08T05:07:04;17.40;99.90
21473;DHT22;10898;48.072;11.682;2023-07-08T05:09:06;17.50;99.90
21473;DHT22;10898;48.072;11.682;2023-07-08T05:11:08;17.50;99.90
21473;DHT22;10898;48.072;11.682;2023-07-08T05:13:09;17.60;99.90
21473;DHT22;10898;48.072;11.682;2023-07-08T05:15:12;17.60;99.90
21473;DHT22;10898;48.072;11.682;2023-07-08T05:17:14;17.60;99.90
21473;DHT22;10898;48.072;11.682;2023-07-08T05:19:15;17.60;99.90
21473;DHT22;10898;48.072;11.682;2023-07-08T05:21:18;17.70;99.90
21473;DHT22;10898;48.072;11.682;2023-07-08T05:23:20;17.70;99.90
21473;DHT22;10898;48.072;11.682;2023-07-08T05:25:22;17.70;99.90
21473;DHT22;10898;48.072;11.682;2023-07-08T05:27:24;17.80;99.90
21473;DHT22;10898;48.072;11.682;2023-07-08T05:29:26;17.80;99.90
21473;DHT22;10898;48.072;11.682;2023-07-08T05:31:28;17.80;99.90
21473;DHT22;10898;48.072;11.682;2023-07-08T05:33:46;17.90;99.90
21473;DHT22;10898;48.072;11.682;2023-07-08T05:35:47;17.80;99.90
21473;DHT22;10898;48.072;11.682;2023-07-08T05:37:49;17.90;99.90
21473;DHT22;10898;48.072;11.682;2023-07-08T05:39:51;17.90;99.90
21473;DHT22;10898;48.072;11.682;2023-07-08T05:41:53;18.00;99.90
21473;DHT22;10898;48.072;11.682;2023-07-08T05:43:55;18.00;99.90
21473;DHT22;10898;48.072;11.682;2023-07-08T05:45:57;18.10;99.90
21473;DHT22;10898;48.072;11.682;2023-07-08T05:48:12;18.20;99.90
21473;DHT22;10898;48.072;11.682;2023-07-08T05:50:14;18.30;99.90
21473;DHT22;10898;48.072;11.682;2023-07-08T05:52:16;18.30;99.90
21473;DHT22;10898;48.072;11.682;2023-07-08T05:54:17;18.50;99.90
21473;DHT22;10898;48.072;11.682;2023-07-08T05:56:19;18.60;99.90
21473;DHT22;10898;48.072;11.682;2023-07-08T05:58:20;18.60;99.90
21473;DHT22;10898;48.072;11.682;2023-07-08T06:00:27;18.70;99.90
21473;DHT22;10898;48.072;11.682;2023-07-08T06:02:39;18.80;99.90
21473;DHT22;10898;48.072;11.682;2023-07-08T06:04:41;18.90;99.90
21473;DHT22;10898;48.072;11.682;2023-07-08T06:06:43;19.00;99.90
21473;DHT22;10898;48.072;11.682;2023-07-08T06:08:44;19.10;99.90
21473;DHT22;10898;48.072;11.682;2023-07-08T06:10:46;19.20;99.90
21473;DHT22;10898;48.072;11.682;2023-07-08T06:12:48;19.30;99.90
21473;DHT22;10898;48.072;11.682;2023-07-08T06:14:49;19.40;99.90
21473;DHT22;10898;48.072;11.682;2023-07-08T06:16:51;19.50;99.90
21473;DHT22;10898;48.072;11.682;2023-07-08T06:18:53;19.60;99.90
21473;DHT22;10898;48.072;11.682;2023-07-08T06:20:55;19.70;99.90
21473;DHT22;10898;48.072;11.682;2023-07-08T06:22:58;19.80;99.90
21473;DHT22;10898;48.072;11.682;2023-07-08T06:25:00;19.90;99.90
21473;DHT22;10898;48.072;11.682;2023-07-08T06:27:01;20.00;99.90
21473;DHT22;10898;48.072;11.682;2023-07-08T06:29:03;20.10;99.90
21473;DHT22;10898;48.072;11.682;2023-07-08T06:31:05;20.10;99.90
21473;DHT22;10898;48.072;11.682;2023-07-08T06:33:07;20.20;99.90
21473;DHT22;10898;48.072;11.682;2023-07-08T06:35:09;20.30;99.90
21473;DHT22;10898;48.072;11.682;2023-07-08T06:37:10;20.40;99.90
21473;DHT22;10898;48.072;11.682;2023-07-08T06:39:12;20.50;99.90
21473;DHT22;10898;48.072;11.682;2023-07-08T06:41:14;20.50;99.90
21473;DHT22;10898;48.072;11.682;2023-07-08T06:43:15;20.60;99.90
21473;DHT22;10898;48.072;11.682;2023-07-08T06:45:17;20.70;99.90
21473;DHT22;10898;48.072;11.682;2023-07-08T06:47:19;20.80;99.90
21473;DHT22;10898;48.072;11.682;2023-07-08T06:49:21;20.80;99.90
21473;DHT22;10898;48.072;11.682;2023-07-08T06:51:23;20.80;99.90
21473;DHT22;10898;48.072;11.682;2023-07-08T06:53:25;20.90;99.90
21473;DHT22;10898;48.072;11.682;2023-07-08T06:55:26;21.00;99.90
21473;DHT22;10898;48.072;11.682;2023-07-08T06:57:28;21.10;99.90
21473;DHT22;10898;48.072;11.682;2023-07-08T06:59:30;21.10;99.90
21473;DHT22;10898;48.072;11.682;2023-07-08T07:01:32;21.10;99.90
21473;DHT22;10898;48.072;11.682;2023-07-08T07:03:34;21.20;99.90
21473;DHT22;10898;48.072;11.682;2023-07-08T07:05:36;21.20;99.90
21473;DHT22;10898;48.072;11.682;2023-07-08T07:07:37;21.30;99.90
21473;DHT22;10898;48.072;11.682;2023-07-08T07:09:39;21.40;99.90
21473;DHT22;10898;48.072;11.682;2023-07-08T07:11:41;21.40;99.90
21473;DHT22;10898;48.072;11.682;2023-07-08T07:13:42;21.40;99.90
21473;DHT22;10898;48.072;11.682;2023-07-08T07:15:44;21.50;99.70
21473;DHT22;10898;48.072;11.682;2023-07-08T07:17:46;21.50;99.90
21473;DHT22;10898;48.072;11.682;2023-07-08T07:19:48;21.60;99.90
21473;DHT22;10898;48.072;11.682;2023-07-08T07:21:50;21.70;99.90
21473;DHT22;10898;48.072;11.682;2023-07-08T07:23:51;21.70;99.90
21473;DHT22;10898;48.072;11.682;2023-07-08T07:25:53;21.70;99.20
21473;DHT22;10898;48.072;11.682;2023-07-08T07:27:55;21.80;99.50
21473;DHT22;10898;48.072;11.682;2023-07-08T07:29:57;21.90;99.30
21473;DHT22;10898;48.072;11.682;2023-07-08T07:32:01;21.90;99.00
21473;DHT22;10898;48.072;11.682;2023-07-08T07:34:02;22.00;99.40
21473;DHT22;10898;48.072;11.682;2023-07-08T07:36:04;22.00;99.50
21473;DHT22;10898;48.072;11.682;2023-07-08T07:38:06;22.10;99.90
21473;DHT22;10898;48.072;11.682;2023-07-08T07:40:09;22.20;99.50
21473;DHT22;10898;48.072;11.682;2023-07-08T07:42:14;22.20;99.90
21473;DHT22;10898;48.072;11.682;2023-07-08T07:44:18;22.30;98.60
21473;DHT22;10898;48.072;11.682;2023-07-08T07:46:21;22.20;97.90
21473;DHT22;10898;48.072;11.682;2023-07-08T07:48:22;22.30;98.40
21473;DHT22;10898;48.072;11.682;2023-07-08T07:50:25;22.30;98.50
21473;DHT22;10898;48.072;11.682;2023-07-08T07:52:27;22.30;98.90
21473;DHT22;10898;48.072;11.682;2023-07-08T07:54:29;22.40;98.40
21473;DHT22;10898;48.072;11.682;2023-07-08T07:56:30;22.50;97.90
21473;DHT22;10898;48.072;11.682;2023-07-08T07:58:34;22.50;97.80
21473;DHT22;10898;48.072;11.682;2023-07-08T08:00:36;22.60;97.60
21473;DHT22;10898;48.072;11.682;2023-07-08T08:02:37;22.70;97.40
21473;DHT22;10898;48.072;11.682;2023-07-08T08:04:39;22.70;96.70
21473;DHT22;10898;48.072;11.682;2023-07-08T08:06:41;22.80;96.40
21473;DHT22;10898;48.072;11.682;2023-07-08T08:08:42;22.80;96.20
21473;DHT22;10898;48.072;11.682;2023-07-08T08:10:44;22.80;96.30
21473;DHT22;10898;48.072;11.682;2023-07-08T08:12:46;22.90;96.00
21473;DHT22;10898;48.072;11.682;2023-07-08T08:14:54;22.90;96.00
21473;DHT22;10898;48.072;11.682;2023-07-08T08:16:56;23.00;96.20
21473;DHT22;10898;48.072;11.682;2023-07-08T08:18:58;22.90;95.70
21473;DHT22;10898;48.072;11.682;2023-07-08T08:21:00;23.00;95.90
21473;DHT22;10898;48.072;11.682;2023-07-08T08:23:01;23.10;95.80
21473;DHT22;10898;48.072;11.682;2023-07-08T08:25:03;23.20;95.40
21473;DHT22;10898;48.072;11.682;2023-07-08T08:27:05;23.20;95.30
21473;DHT22;10898;48.072;11.682;2023-07-08T08:29:07;23.20;94.60
21473;DHT22;10898;48.072;11.682;2023-07-08T08:31:08;23.30;94.50
21473;DHT22;10898;48.072;11.682;2023-07-08T08:33:10;23.30;94.00
21473;DHT22;10898;48.072;11.682;2023-07-08T08:35:12;23.30;94.10
21473;DHT22;10898;48.072;11.682;2023-07-08T08:37:14;23.30;94.00
21473;DHT22;10898;48.072;11.682;2023-07-08T08:39:16;23.30;94.00
21473;DHT22;10898;48.072;11.682;2023-07-08T08:41:18;23.30;94.10
21473;DHT22;10898;48.072;11.682;2023-07-08T08:43:22;23.40;93.70
21473;DHT22;10898;48.072;11.682;2023-07-08T08:45:24;23.40;93.80
21473;DHT22;10898;48.072;11.682;2023-07-08T08:47:35;23.40;94.20
21473;DHT22;10898;48.072;11.682;2023-07-08T08:49:41;23.50;93.60
21473;DHT22;10898;48.072;11.682;2023-07-08T08:51:46;23.60;93.30
21473;DHT22;10898;48.072;11.682;2023-07-08T08:53:49;23.70;93.50
21473;DHT22;10898;48.072;11.682;2023-07-08T08:55:59;23.80;92.80
21473;DHT22;10898;48.072;11.682;2023-07-08T08:58:09;23.80;93.10
21473;DHT22;10898;48.072;11.682;2023-07-08T09:00:16;23.90;92.70
21473;DHT22;10898;48.072;11.682;2023-07-08T09:02:34;24.00;92.40
21473;DHT22;10898;48.072;11.682;2023-07-08T09:04:38;24.10;92.20
21473;DHT22;10898;48.072;11.682;2023-07-08T09:06:40;24.10;91.80
21473;DHT22;10898;48.072;11.682;2023-07-08T09:08:42;24.10;91.30
21473;DHT22;10898;48.072;11.682;2023-07-08T09:12:46;24.20;91.50
21473;DHT22;10898;48.072;11.682;2023-07-08T09:14:50;24.30;91.30
21473;DHT22;10898;48.072;11.682;2023-07-08T09:19:00;24.40;91.00
21473;DHT22;10898;48.072;11.682;2023-07-08T09:21:13;24.60;90.80
21473;DHT22;10898;48.072;11.682;2023-07-08T09:23:24;24.60;90.00
21473;DHT22;10898;48.072;11.682;2023-07-08T09:25:34;24.60;87.70
21473;DHT22;10898;48.072;11.682;2023-07-08T09:27:37;24.70;89.50
21473;DHT22;10898;48.072;11.682;2023-07-08T09:29:38;24.80;88.30
21473;DHT22;10898;48.072;11.682;2023-07-08T09:31:40;24.80;88.60
21473;DHT22;10898;48.072;11.682;2023-07-08T09:33:44;25.00;88.60
21473;DHT22;10898;48.072;11.682;2023-07-08T09:35:47;25.10;89.00
21473;DHT22;10898;48.072;11.682;2023-07-08T09:37:49;25.20;86.00
21473;DHT22;10898;48.072;11.682;2023-07-08T09:39:52;25.20;84.60
21473;DHT22;10898;48.072;11.682;2023-07-08T09:41:54;25.20;83.10
21473;DHT22;10898;48.072;11.682;2023-07-08T09:46:16;25.40;83.30
21473;DHT22;10898;48.072;11.682;2023-07-08T09:48:23;25.50;82.60
21473;DHT22;10898;48.072;11.682;2023-07-08T09:50:26;25.60;81.90
21473;DHT22;10898;48.072;11.682;2023-07-08T09:52:29;25.70;80.50
21473;DHT22;10898;48.072;11.682;2023-07-08T09:54:31;25.70;79.80
21473;DHT22;10898;48.072;11.682;2023-07-08T09:56:34;25.80;80.10
21473;DHT22;10898;48.072;11.682;2023-07-08T09:58:39;25.90;80.70
21473;DHT22;10898;48.072;11.682;2023-07-08T10:00:43;25.90;79.50
21473;DHT22;10898;48.072;11.682;2023-07-08T10:02:46;26.00;77.50
21473;DHT22;10898;48.072;11.682;2023-07-08T10:04:54;26.10;76.70
21473;DHT22;10898;48.072;11.682;2023-07-08T10:06:56;26.20;74.20
21473;DHT22;10898;48.072;11.682;2023-07-08T10:09:11;26.10;74.60
21473;DHT22;10898;48.072;11.682;2023-07-08T10:13:19;26.00;73.60
21473;DHT22;10898;48.072;11.682;2023-07-08T10:15:33;26.20;75.00
21473;DHT22;10898;48.072;11.682;2023-07-08T10:17:38;26.10;76.00
21473;DHT22;10898;48.072;11.682;2023-07-08T10:19:41;26.10;78.10
21473;DHT22;10898;48.072;11.682;2023-07-08T10:21:48;26.20;76.30
21473;DHT22;10898;48.072;11.682;2023-07-08T10:24:02;26.30;77.10
21473;DHT22;10898;48.072;11.682;2023-07-08T10:30:21;26.60;73.20
21473;DHT22;10898;48.072;11.682;2023-07-08T10:37:01;26.70;72.20
21473;DHT22;10898;48.072;11.682;2023-07-08T10:45:48;26.80;70.30
21473;DHT22;10898;48.072;11.682;2023-07-08T10:52:25;26.90;72.30
21473;DHT22;10898;48.072;11.682;2023-07-08T10:56:39;27.00;70.30
21473;DHT22;10898;48.072;11.682;2023-07-08T11:02:53;27.10;69.20
21473;DHT22;10898;48.072;11.682;2023-07-08T11:07:13;27.20;67.50
21473;DHT22;10898;48.072;11.682;2023-07-08T11:09:23;27.30;68.80
21473;DHT22;10898;48.072;11.682;2023-07-08T11:11:32;27.30;68.80
21473;DHT22;10898;48.072;11.682;2023-07-08T11:13:37;27.40;68.60
21473;DHT22;10898;48.072;11.682;2023-07-08T11:15:49;27.40;68.20
21473;DHT22;10898;48.072;11.682;2023-07-08T11:17:55;27.40;64.50
21473;DHT22;10898;48.072;11.682;2023-07-08T11:20:00;27.50;64.80
21473;DHT22;10898;48.072;11.682;2023-07-08T11:22:05;27.40;65.20
21473;DHT22;10898;48.072;11.682;2023-07-08T11:26:24;27.40;67.30
21473;DHT22;10898;48.072;11.682;2023-07-08T11:28:27;27.40;68.60
21473;DHT22;10898;48.072;11.682;2023-07-08T11:30:30;27.50;68.50
21473;DHT22;10898;48.072;11.682;2023-07-08T11:32:33;27.50;68.10
21473;DHT22;10898;48.072;11.682;2023-07-08T11:34:35;27.60;65.90
21473;DHT22;10898;48.072;11.682;2023-07-08T11:36:38;27.70;67.00
21473;DHT22;10898;48.072;11.682;2023-07-08T11:38:50;27.70;63.70
21473;DHT22;10898;48.072;11.682;2023-07-08T11:40:56;27.60;65.00
21473;DHT22;10898;48.072;11.682;2023-07-08T11:43:00;27.80;67.00
21473;DHT22;10898;48.072;11.682;2023-07-08T11:45:06;27.80;66.60
21473;DHT22;10898;48.072;11.682;2023-07-08T11:47:16;27.90;67.40
21473;DHT22;10898;48.072;11.682;2023-07-08T11:49:19;28.00;65.80
21473;DHT22;10898;48.072;11.682;2023-07-08T11:51:31;28.10;64.70
21473;DHT22;10898;48.072;11.682;2023-07-08T11:53:35;28.20;64.60
21473;DHT22;10898;48.072;11.682;2023-07-08T11:55:47;28.30;61.60
21473;DHT22;10898;48.072;11.682;2023-07-08T11:57:49;28.30;62.70
21473;DHT22;10898;48.072;11.682;2023-07-08T12:00:12;28.30;63.40
21473;DHT22;10898;48.072;11.682;2023-07-08T12:02:16;28.40;62.50
21473;DHT22;10898;48.072;11.682;2023-07-08T12:04:29;28.50;61.90
21473;DHT22;10898;48.072;11.682;2023-07-08T12:08:34;28.70;63.00
21473;DHT22;10898;48.072;11.682;2023-07-08T12:10:49;28.70;60.80
21473;DHT22;10898;48.072;11.682;2023-07-08T12:12:51;28.70;60.00
21473;DHT22;10898;48.072;11.682;2023-07-08T12:14:55;28.70;61.20
21473;DHT22;10898;48.072;11.682;2023-07-08T12:17:00;28.70;60.40
21473;DHT22;10898;48.072;11.682;2023-07-08T12:19:02;28.80;62.50
21473;DHT22;10898;48.072;11.682;2023-07-08T12:21:07;28.80;60.90
21473;DHT22;10898;48.072;11.682;2023-07-08T12:23:11;28.80;62.40
21473;DHT22;10898;48.072;11.682;2023-07-08T12:25:14;28.90;63.60
21473;DHT22;10898;48.072;11.682;2023-07-08T12:27:17;29.00;61.00
21473;DHT22;10898;48.072;11.682;2023-07-08T12:29:20;29.10;61.30
21473;DHT22;10898;48.072;11.682;2023-07-08T12:31:22;29.30;60.30
21473;DHT22;10898;48.072;11.682;2023-07-08T12:35:30;29.50;58.50
21473;DHT22;10898;48.072;11.682;2023-07-08T12:37:32;29.50;58.00
21473;DHT22;10898;48.072;11.682;2023-07-08T12:39:34;29.70;57.70
21473;DHT22;10898;48.072;11.682;2023-07-08T12:41:37;29.80;56.90
21473;DHT22;10898;48.072;11.682;2023-07-08T12:43:40;29.90;59.20
21473;DHT22;10898;48.072;11.682;2023-07-08T12:45:42;30.10;57.30
21473;DHT22;10898;48.072;11.682;2023-07-08T12:47:43;30.10;55.50
21473;DHT22;10898;48.072;11.682;2023-07-08T12:49:45;30.20;55.20
21473;DHT22;10898;48.072;11.682;2023-07-08T12:51:47;30.20;52.90
21473;DHT22;10898;48.072;11.682;2023-07-08T12:53:49;30.20;54.70
21473;DHT22;10898;48.072;11.682;2023-07-08T12:55:52;30.30;55.80
21473;DHT22;10898;48.072;11.682;2023-07-08T12:57:55;30.40;55.50
21473;DHT22;10898;48.072;11.682;2023-07-08T12:59:57;30.50;55.90
21473;DHT22;10898;48.072;11.682;2023-07-08T13:01:59;30.70;55.90
21473;DHT22;10898;48.072;11.682;2023-07-08T13:04:03;30.70;56.10
21473;DHT22;10898;48.072;11.682;2023-07-08T13:06:05;30.90;55.80
21473;DHT22;10898;48.072;11.682;2023-07-08T13:08:10;31.00;52.00
21473;DHT22;10898;48.072;11.682;2023-07-08T13:10:19;31.10;52.40
21473;DHT22;10898;48.072;11.682;2023-07-08T13:12:22;31.20;54.50
21473;DHT22;10898;48.072;11.682;2023-07-08T13:14:25;31.20;52.60
21473;DHT22;10898;48.072;11.682;2023-07-08T13:16:32;31.30;52.60
21473;DHT22;10898;48.072;11.682;2023-07-08T13:18:39;31.40;53.90
21473;DHT22;10898;48.072;11.682;2023-07-08T13:20:42;31.40;53.60
21473;DHT22;10898;48.072;11.682;2023-07-08T13:22:45;31.50;53.60
21473;DHT22;10898;48.072;11.682;2023-07-08T13:24:48;31.60;52.20
21473;DHT22;10898;48.072;11.682;2023-07-08T13:26:50;31.60;54.30
21473;DHT22;10898;48.072;11.682;2023-07-08T13:28:59;31.70;52.20
21473;DHT22;10898;48.072;11.682;2023-07-08T13:31:02;31.70;52.10
21473;DHT22;10898;48.072;11.682;2023-07-08T13:33:04;31.70;50.80